Search for airport 
image banner adimage banner adimage banner ad
image banner ad

0L9 - Echo Bay

Located in Overton, United States

ICAO - 0L9, IATA -

Data provided by Airmate  

General information

Coordinates: N36°18'40" W114°27'50"
Elevation is 1535 feet MSL.
Magnetic variation is 14° East
View others Airports in Nevada

Operational data

Special qualification required
Current time UTC:
Current local time:
Weather at : KLSV - Nellis Afb ( 52 km )
METAR: KLSV 130158Z AUTO 13006KT 10SM CLR 38/M11 A2973 RMK AO2 SLP042 T03841108 $
TAF: TAF KLSV 122300Z 1223/1405 14009KT 9999 SKC QNH2975INS BECMG 1302/1303 30006KT 9999 SKC QNH2974INS BECMG 1320/1321 15010G15KT 9999 SKC QNH2971INS BECMG 1402/1403 31009KT 9999 SKC QNH2974INS TX40/1223Z TN23/1313Z
View NOTAMs / SUP AIP / TFR affecting this airport [VIEW]
Communications frequencies: [VIEW]

Runways:

RWY identifierQFULength (ft)Width (ft)SurfaceLDA (ft)
0679°340050ASPH
24259°340050ASPH

Airport contact information

Address: Overton United States

Satellite view of 0L9